createdAt,value
2022-08-24T00:02:01.591Z,100389.74
2022-08-24T00:04:32.152Z,100391.12
2022-08-24T00:07:02.527Z,100392.31
2022-08-24T00:09:32.819Z,100396.55
2022-08-24T00:12:01.721Z,100398.48
2022-08-24T00:14:31.395Z,100393.92
2022-08-24T00:17:00.350Z,100395.27
2022-08-24T00:19:29.333Z,100388.70
2022-08-24T00:21:57.335Z,100389.44
2022-08-24T00:24:25.146Z,100390.54
2022-08-24T00:26:54.627Z,100389.57
2022-08-24T00:29:23.515Z,100389.86
2022-08-24T00:31:51.750Z,100391.18
2022-08-24T00:34:20.048Z,100389.44
2022-08-24T00:36:48.119Z,100393.39
2022-08-24T00:39:16.166Z,100389.48
2022-08-24T00:41:46.686Z,100388.53
2022-08-24T00:44:16.922Z,100387.71
2022-08-24T00:47:07.999Z,100391.15
2022-08-24T00:49:41.135Z,100389.95
2022-08-24T00:52:09.344Z,100386.07
2022-08-24T00:54:46.115Z,100384.91
2022-08-24T00:57:20.250Z,100383.31
2022-08-24T00:59:58.352Z,100387.89
2022-08-24T01:02:31.841Z,100383.20
2022-08-24T01:07:53.770Z,100385.39
2022-08-24T01:10:26.336Z,100391.58
2022-08-24T01:13:01.892Z,100396.09
2022-08-24T01:15:33.463Z,100398.13
2022-08-24T01:18:21.757Z,100402.33
2022-08-24T01:20:57.337Z,100402.17
2022-08-24T01:23:44.449Z,100397.81
2022-08-24T01:26:18.525Z,100398.08
2022-08-24T01:28:51.082Z,100397.01
2022-08-24T01:31:23.047Z,100403.27
2022-08-24T01:33:54.354Z,100403.91
2022-08-24T01:36:48.483Z,100409.35
2022-08-24T01:39:21.615Z,100409.06
2022-08-24T01:41:49.795Z,100409.00
2022-08-24T01:44:19.725Z,100412.72
2022-08-24T01:46:50.126Z,100416.20
2022-08-24T01:49:18.065Z,100414.12
2022-08-24T01:51:46.561Z,100411.64
2022-08-24T01:54:16.431Z,100412.10
2022-08-24T01:56:44.483Z,100417.08
2022-08-24T01:59:13.890Z,100419.01
2022-08-24T02:01:49.071Z,100420.15
2022-08-24T02:04:17.704Z,100421.61
2022-08-24T02:06:47.126Z,100423.26
2022-08-24T02:09:15.459Z,100430.91
2022-08-24T02:11:44.020Z,100441.70
2022-08-24T02:14:13.376Z,100443.80
2022-08-24T02:16:43.418Z,100442.67
2022-08-24T02:19:11.340Z,100445.38
2022-08-24T02:21:39.954Z,100445.17
2022-08-24T02:24:08.861Z,100446.69
2022-08-24T02:26:36.841Z,100447.17
2022-08-24T02:29:04.874Z,100446.20
2022-08-24T02:31:34.063Z,100446.16
2022-08-24T02:34:03.135Z,100453.23
2022-08-24T02:36:31.657Z,100459.17
2022-08-24T02:38:59.947Z,100458.24
2022-08-24T02:41:28.148Z,100454.82
2022-08-24T02:43:57.171Z,100453.65
2022-08-24T02:46:30.027Z,100454.50
2022-08-24T02:49:10.471Z,100455.20
2022-08-24T02:51:45.533Z,100454.66
2022-08-24T02:54:18.431Z,100453.77
2022-08-24T02:56:48.502Z,100451.73
2022-08-24T02:59:16.907Z,100457.06
2022-08-24T03:01:45.873Z,100453.91
2022-08-24T03:04:14.677Z,100451.92
2022-08-24T03:06:43.034Z,100447.40
2022-08-24T03:09:12.451Z,100443.27
2022-08-24T03:11:44.268Z,100442.80
2022-08-24T03:14:14.709Z,100447.25
2022-08-24T03:16:42.846Z,100447.83
2022-08-24T03:19:11.074Z,100445.48
2022-08-24T03:21:39.362Z,100453.65
2022-08-24T03:24:07.899Z,100457.23
2022-08-24T03:26:35.952Z,100454.62
2022-08-24T03:29:04.034Z,100454.92
2022-08-24T03:31:32.504Z,100455.19
2022-08-24T03:34:00.705Z,100455.61
2022-08-24T03:36:28.644Z,100462.63
2022-08-24T03:38:56.495Z,100460.42
2022-08-24T03:41:25.575Z,100459.23
2022-08-24T03:43:56.177Z,100462.89
2022-08-24T03:46:28.958Z,100467.64
2022-08-24T03:48:59.395Z,100467.33
2022-08-24T03:51:29.224Z,100468.78
2022-08-24T03:53:59.390Z,100472.66
2022-08-24T03:56:28.040Z,100472.38
2022-08-24T03:58:56.576Z,100472.63
2022-08-24T04:01:24.939Z,100479.79
2022-08-24T04:03:54.570Z,100475.14
2022-08-24T04:06:23.525Z,100476.05
2022-08-24T04:08:53.465Z,100476.33
2022-08-24T04:11:27.162Z,100477.50
2022-08-24T04:13:57.272Z,100477.90
2022-08-24T04:16:27.094Z,100482.90
2022-08-24T04:18:57.765Z,100487.80
2022-08-24T04:21:28.313Z,100491.44
2022-08-24T04:23:58.095Z,100496.61
2022-08-24T04:26:44.704Z,100496.70
2022-08-24T04:29:16.703Z,100500.90
2022-08-24T04:31:45.337Z,100500.86
2022-08-24T04:34:16.196Z,100503.66
2022-08-24T04:36:45.667Z,100506.43
2022-08-24T04:39:14.899Z,100507.34
2022-08-24T04:41:43.096Z,100508.76
2022-08-24T04:44:12.543Z,100511.16
2022-08-24T04:46:40.495Z,100513.31
2022-08-24T04:49:08.745Z,100517.38
2022-08-24T04:51:38.845Z,100523.86
2022-08-24T04:54:08.342Z,100527.77
2022-08-24T04:56:36.695Z,100531.48
2022-08-24T04:59:05.715Z,100530.58
2022-08-24T05:01:34.625Z,100528.60
2022-08-24T05:04:04.616Z,100525.05
2022-08-24T05:06:32.997Z,100524.83
2022-08-24T05:09:03.090Z,100521.81
2022-08-24T05:11:31.487Z,100516.28
2022-08-24T05:13:59.802Z,100521.17
2022-08-24T05:16:28.779Z,100519.44
2022-08-24T05:19:00.497Z,100519.31
2022-08-24T05:21:28.585Z,100521.78
2022-08-24T05:23:57.068Z,100524.73
2022-08-24T05:26:27.106Z,100529.23
2022-08-24T05:28:57.668Z,100524.27
2022-08-24T05:31:28.543Z,100530.45
2022-08-24T05:33:56.974Z,100534.77
2022-08-24T05:36:31.507Z,100535.84
2022-08-24T05:39:10.967Z,100538.76
2022-08-24T05:41:44.272Z,100548.34
2022-08-24T05:44:18.122Z,100542.50
2022-08-24T05:46:46.586Z,100539.56
2022-08-24T05:49:14.575Z,100537.53
2022-08-24T05:51:42.928Z,100534.38
2022-08-24T05:54:13.898Z,100533.58
2022-08-24T05:56:42.514Z,100528.66
2022-08-24T05:59:11.019Z,100529.89
2022-08-24T06:01:43.334Z,100529.98
2022-08-24T06:04:13.466Z,100527.91
2022-08-24T06:06:43.166Z,100524.27
2022-08-24T06:09:12.640Z,100522.86
2022-08-24T06:11:41.712Z,100523.70
2022-08-24T06:14:13.176Z,100519.46
2022-08-24T06:16:43.953Z,100525.58
2022-08-24T06:19:14.946Z,100529.64
2022-08-24T06:21:44.566Z,100531.09
2022-08-24T06:24:15.937Z,100530.58
2022-08-24T06:27:03.735Z,100531.18
2022-08-24T06:29:34.697Z,100534.20
2022-08-24T06:32:02.987Z,100532.29
2022-08-24T06:34:31.036Z,100537.02
2022-08-24T06:36:59.311Z,100542.40
2022-08-24T06:39:27.838Z,100544.29
2022-08-24T06:41:56.666Z,100540.13
2022-08-24T06:44:24.738Z,100547.59
2022-08-24T06:46:52.897Z,100554.55
2022-08-24T06:49:21.448Z,100564.57
2022-08-24T06:51:50.922Z,100565.73
2022-08-24T06:54:24.137Z,100570.45
2022-08-24T06:56:51.980Z,100572.69
2022-08-24T06:59:21.098Z,100572.73
2022-08-24T07:01:49.222Z,100573.41
2022-08-24T07:04:17.136Z,100573.81
2022-08-24T07:06:45.525Z,100574.09
2022-08-24T07:09:13.543Z,100583.23
2022-08-24T07:11:41.566Z,100586.45
2022-08-24T07:14:09.643Z,100594.95
2022-08-24T07:16:37.905Z,100592.02
2022-08-24T07:19:06.595Z,100593.54
2022-08-24T07:21:34.486Z,100596.10
2022-08-24T07:24:03.595Z,100592.85
2022-08-24T07:26:32.105Z,100591.44
2022-08-24T07:29:06.485Z,100595.44
2022-08-24T07:31:39.114Z,100595.42
2022-08-24T07:34:09.159Z,100594.97
2022-08-24T07:36:44.260Z,100593.51
2022-08-24T07:39:12.935Z,100594.44
2022-08-24T07:44:31.976Z,100593.25
2022-08-24T07:47:15.152Z,100592.42
2022-08-24T07:49:48.388Z,100593.77
2022-08-24T07:52:16.535Z,100595.27
2022-08-24T07:54:44.420Z,100593.78
2022-08-24T07:57:12.334Z,100593.92
2022-08-24T07:59:40.147Z,100595.34
2022-08-24T08:02:10.423Z,100597.70
2022-08-24T08:04:38.539Z,100605.70
2022-08-24T08:07:07.691Z,100603.67
2022-08-24T08:09:39.785Z,100608.66
2022-08-24T08:12:08.266Z,100609.13
2022-08-24T08:14:36.127Z,100614.38
2022-08-24T08:17:04.915Z,100610.09
2022-08-24T08:19:33.338Z,100609.42
2022-08-24T08:22:20.206Z,100613.05
2022-08-24T08:24:48.136Z,100610.61
2022-08-24T08:27:16.638Z,100611.70
2022-08-24T08:29:44.791Z,100616.92
2022-08-24T08:32:17.192Z,100619.13
2022-08-24T08:34:45.949Z,100619.72
2022-08-24T08:37:14.532Z,100627.52
2022-08-24T08:39:43.201Z,100633.09
2022-08-24T08:42:28.503Z,100634.05
2022-08-24T08:44:59.282Z,100637.42
2022-08-24T08:47:45.586Z,100638.45
2022-08-24T08:50:19.027Z,100636.77
2022-08-24T08:53:10.007Z,100636.21
2022-08-24T08:56:03.480Z,100641.02
2022-08-24T08:58:59.472Z,100646.39
2022-08-24T09:01:44.302Z,100646.46
2022-08-24T09:04:36.863Z,100644.10
2022-08-24T09:07:25.150Z,100649.33
2022-08-24T09:10:05.096Z,100649.66
2022-08-24T09:13:09.156Z,100647.77
2022-08-24T09:16:09.712Z,100645.84
2022-08-24T09:18:57.000Z,100642.48
2022-08-24T09:21:41.815Z,100644.98
2022-08-24T09:24:31.789Z,100645.02
2022-08-24T09:27:14.088Z,100645.64
2022-08-24T09:30:19.435Z,100644.52
2022-08-24T09:33:10.610Z,100646.25
2022-08-24T09:35:56.847Z,100649.13
2022-08-24T09:38:43.583Z,100646.26
2022-08-24T09:41:11.562Z,100640.75
2022-08-24T09:44:03.395Z,100643.26
2022-08-24T09:47:09.806Z,100645.75
2022-08-24T09:50:02.475Z,100645.96
2022-08-24T09:52:56.533Z,100651.60
2022-08-24T09:55:36.765Z,100655.35
2022-08-24T09:58:10.675Z,100655.41
2022-08-24T10:01:09.195Z,100651.98
2022-08-24T10:03:56.104Z,100654.35
2022-08-24T10:06:38.385Z,100656.26
2022-08-24T10:09:12.276Z,100655.20
2022-08-24T10:11:42.850Z,100656.67
2022-08-24T10:14:49.620Z,100655.92
2022-08-24T10:17:43.060Z,100651.67
2022-08-24T10:20:26.281Z,100652.09
2022-08-24T10:23:11.277Z,100651.77
2022-08-24T10:26:25.718Z,100646.53
2022-08-24T10:29:12.011Z,100650.38
2022-08-24T10:32:07.775Z,100654.51
2022-08-24T10:35:00.835Z,100652.59
2022-08-24T10:38:13.546Z,100654.52
2022-08-24T10:41:00.265Z,100657.40
2022-08-24T10:43:53.185Z,100655.08
2022-08-24T10:46:27.207Z,100656.52
2022-08-24T10:49:46.576Z,100653.88
2022-08-24T10:52:47.325Z,100648.91
2022-08-24T10:55:28.864Z,100643.67
2022-08-24T10:58:18.205Z,100641.88
2022-08-24T11:00:46.571Z,100638.05
2022-08-24T11:03:19.977Z,100632.42
2022-08-24T11:05:57.298Z,100631.38
2022-08-24T11:08:33.607Z,100627.86
2022-08-24T11:11:07.074Z,100631.13
2022-08-24T11:13:37.745Z,100629.01
2022-08-24T11:16:06.857Z,100629.56
2022-08-24T11:18:55.665Z,100625.83
2022-08-24T11:21:35.580Z,100625.08
2022-08-24T11:24:12.310Z,100626.80
2022-08-24T11:27:03.941Z,100622.02
2022-08-24T11:29:56.547Z,100627.48
2022-08-24T11:32:30.745Z,100626.79
2022-08-24T11:35:09.710Z,100627.08
2022-08-24T11:37:39.616Z,100626.91
2022-08-24T11:40:09.502Z,100624.58
2022-08-24T11:42:40.093Z,100625.11
2022-08-24T11:45:30.530Z,100635.07
2022-08-24T11:48:14.117Z,100631.96
2022-08-24T11:51:10.557Z,100638.88
2022-08-24T11:53:56.865Z,100646.45
2022-08-24T11:56:35.875Z,100646.62
2022-08-24T11:59:17.924Z,100645.79
2022-08-24T12:02:04.471Z,100649.05
2022-08-24T12:05:10.897Z,100648.98
2022-08-24T12:08:10.509Z,100648.42
2022-08-24T12:10:50.240Z,100651.31
2022-08-24T12:13:41.305Z,100651.03
2022-08-24T12:16:17.378Z,100647.23
2022-08-24T12:18:56.488Z,100645.91
2022-08-24T12:21:29.384Z,100646.44
2022-08-24T12:24:04.844Z,100646.42
2022-08-24T12:26:43.974Z,100645.71
2022-08-24T12:29:50.448Z,100639.02
2022-08-24T12:32:23.780Z,100633.88
2022-08-24T12:34:58.870Z,100637.16
2022-08-24T12:37:30.020Z,100633.98
2022-08-24T12:40:27.418Z,100634.54
2022-08-24T12:43:10.089Z,100634.91
2022-08-24T12:45:38.130Z,100632.58
2022-08-24T12:48:30.218Z,100627.88
2022-08-24T12:51:14.705Z,100628.20
2022-08-24T12:54:05.504Z,100629.20
2022-08-24T12:56:36.308Z,100630.30
2022-08-24T12:59:30.589Z,100629.65
2022-08-24T13:02:26.809Z,100627.14
2022-08-24T13:05:03.507Z,100630.59
2022-08-24T13:07:40.408Z,100630.36
2022-08-24T13:10:14.760Z,100629.48
2022-08-24T13:12:43.718Z,100628.92
2022-08-24T13:15:23.804Z,100630.39
2022-08-24T13:18:07.515Z,100626.30
2022-08-24T13:20:36.389Z,100627.56
2022-08-24T13:23:13.477Z,100628.52
2022-08-24T13:25:47.309Z,100620.91
2022-08-24T13:28:41.649Z,100624.14
2022-08-24T13:31:27.692Z,100625.25
2022-08-24T13:34:09.353Z,100622.20
2022-08-24T13:37:06.157Z,100612.33
2022-08-24T13:39:49.394Z,100611.70
2022-08-24T13:42:35.645Z,100610.84
2022-08-24T13:45:34.919Z,100611.77
2022-08-24T13:48:09.084Z,100615.06
2022-08-24T13:51:05.707Z,100614.11
2022-08-24T13:54:08.529Z,100611.78
2022-08-24T13:57:03.314Z,100601.96
2022-08-24T13:59:37.306Z,100596.54
2022-08-24T14:02:14.446Z,100600.34
2022-08-24T14:05:08.740Z,100598.33
2022-08-24T14:07:57.100Z,100592.68
2022-08-24T14:10:27.960Z,100590.73
2022-08-24T14:13:26.583Z,100589.88
2022-08-24T14:16:30.538Z,100580.30
2022-08-24T14:19:15.374Z,100581.19
2022-08-24T14:21:53.710Z,100586.63
2022-08-24T14:24:45.279Z,100590.14
2022-08-24T14:27:37.719Z,100591.65
2022-08-24T14:30:17.806Z,100591.88
2022-08-24T14:32:58.436Z,100595.19
2022-08-24T14:35:43.508Z,100593.80
2022-08-24T14:38:23.425Z,100590.91
2022-08-24T14:41:18.618Z,100594.58
2022-08-24T14:44:14.781Z,100596.30
2022-08-24T14:47:06.728Z,100597.52
2022-08-24T14:49:41.409Z,100596.80
2022-08-24T14:52:33.374Z,100598.59
2022-08-24T14:55:29.906Z,100600.66
2022-08-24T14:58:19.994Z,100601.52
2022-08-24T15:01:15.242Z,100602.17
2022-08-24T15:04:37.384Z,100594.08
2022-08-24T15:07:37.745Z,100590.61
2022-08-24T15:10:15.114Z,100593.50
2022-08-24T15:12:49.226Z,100593.45
2022-08-24T15:15:55.998Z,100588.24
2022-08-24T15:18:47.009Z,100592.90
2022-08-24T15:21:14.737Z,100591.80
2022-08-24T15:24:16.922Z,100595.19
2022-08-24T15:27:11.047Z,100602.63
2022-08-24T15:29:58.270Z,100606.19
2022-08-24T15:32:59.267Z,100595.05
2022-08-24T15:35:30.158Z,100592.11
2022-08-24T15:37:58.776Z,100589.15
2022-08-24T15:40:29.807Z,100589.23
2022-08-24T15:43:18.628Z,100593.67
2022-08-24T15:45:51.637Z,100590.06
2022-08-24T15:48:24.909Z,100588.67
2022-08-24T15:50:56.033Z,100582.69
2022-08-24T15:53:42.905Z,100576.13
2022-08-24T15:56:30.108Z,100571.80
2022-08-24T15:59:11.493Z,100572.46
2022-08-24T16:01:58.806Z,100569.05
2022-08-24T16:04:43.678Z,100575.36
2022-08-24T16:07:23.684Z,100575.79
2022-08-24T16:10:12.557Z,100574.08
2022-08-24T16:12:40.424Z,100574.62
2022-08-24T16:15:17.410Z,100574.27
2022-08-24T16:17:51.760Z,100578.58
2022-08-24T16:20:26.554Z,100577.96
2022-08-24T16:23:13.766Z,100579.96
2022-08-24T16:25:50.489Z,100586.66
2022-08-24T16:28:22.032Z,100590.73
2022-08-24T16:30:54.822Z,100593.36
2022-08-24T16:33:34.754Z,100596.91
2022-08-24T16:36:16.668Z,100609.11
2022-08-24T16:38:49.898Z,100609.98
2022-08-24T16:41:21.535Z,100615.67
2022-08-24T16:43:50.148Z,100612.81
2022-08-24T16:46:23.838Z,100613.38
2022-08-24T16:48:54.382Z,100611.73
2022-08-24T16:51:24.869Z,100602.94
2022-08-24T16:53:54.044Z,100598.25
2022-08-24T16:56:22.939Z,100593.27
2022-08-24T16:58:51.485Z,100594.55
2022-08-24T17:01:20.531Z,100594.14
2022-08-24T17:03:48.632Z,100596.81
2022-08-24T17:06:19.031Z,100594.70
2022-08-24T17:08:47.819Z,100592.80
2022-08-24T17:11:16.699Z,100585.33
2022-08-24T17:13:51.828Z,100583.12
2022-08-24T17:16:21.981Z,100583.59
2022-08-24T17:18:50.167Z,100584.81
2022-08-24T17:21:19.330Z,100588.77
2022-08-24T17:23:47.691Z,100587.25
2022-08-24T17:26:21.571Z,100589.13
2022-08-24T17:28:54.711Z,100590.08
2022-08-24T17:31:26.249Z,100593.94
2022-08-24T17:33:54.596Z,100601.46
2022-08-24T17:36:23.959Z,100608.87
2022-08-24T17:38:56.063Z,100610.70
2022-08-24T17:41:25.801Z,100610.80
2022-08-24T17:43:54.188Z,100615.05
2022-08-24T17:46:22.680Z,100618.91
2022-08-24T17:48:50.750Z,100622.42
2022-08-24T17:51:19.815Z,100623.51
2022-08-24T17:53:47.775Z,100629.66
2022-08-24T17:56:17.032Z,100632.70
2022-08-24T17:59:05.302Z,100629.74
2022-08-24T18:01:33.537Z,100635.17
2022-08-24T18:04:01.424Z,100633.73
2022-08-24T18:06:29.440Z,100634.79
2022-08-24T18:09:03.115Z,100629.17
2022-08-24T18:11:31.468Z,100639.20
2022-08-24T18:14:01.664Z,100638.90
2022-08-24T18:16:29.843Z,100640.02
2022-08-24T18:18:58.408Z,100644.70
2022-08-24T18:21:26.374Z,100642.82
2022-08-24T18:23:54.339Z,100644.48
2022-08-24T18:26:28.153Z,100645.97
2022-08-24T18:29:00.335Z,100644.16
2022-08-24T18:31:30.870Z,100651.58
2022-08-24T18:33:59.126Z,100656.15
2022-08-24T18:36:27.025Z,100661.27
2022-08-24T18:38:54.967Z,100659.75
2022-08-24T18:41:27.835Z,100658.62
2022-08-24T18:43:56.042Z,100658.89
2022-08-24T18:46:25.872Z,100660.09
2022-08-24T18:48:53.788Z,100661.36
2022-08-24T18:51:22.272Z,100663.08
2022-08-24T18:54:03.176Z,100665.84
2022-08-24T18:56:31.072Z,100663.12
2022-08-24T18:58:58.962Z,100660.15
2022-08-24T19:01:28.557Z,100662.16
2022-08-24T19:03:56.937Z,100669.20
2022-08-24T19:06:25.065Z,100671.52
2022-08-24T19:08:52.935Z,100672.27
2022-08-24T19:11:24.383Z,100667.98
2022-08-24T19:13:52.415Z,100668.98
2022-08-24T19:16:21.285Z,100667.09
2022-08-24T19:18:51.145Z,100664.06
2022-08-24T19:21:19.556Z,100671.40
2022-08-24T19:23:47.620Z,100677.41
2022-08-24T19:26:15.545Z,100685.13
2022-08-24T19:28:45.042Z,100693.15
2022-08-24T19:31:14.086Z,100695.65
2022-08-24T19:33:49.834Z,100697.63
2022-08-24T19:36:18.579Z,100692.21
2022-08-24T19:38:47.776Z,100689.66
2022-08-24T19:41:17.633Z,100687.91
2022-08-24T19:44:09.665Z,100688.89
2022-08-24T19:46:38.113Z,100692.33
2022-08-24T19:49:08.588Z,100693.79
2022-08-24T19:51:38.871Z,100694.08
2022-08-24T19:54:07.099Z,100692.70
2022-08-24T19:56:35.129Z,100698.20
2022-08-24T19:59:08.924Z,100697.11
2022-08-24T20:01:37.424Z,100690.91
2022-08-24T20:04:07.610Z,100691.92
2022-08-24T20:06:38.315Z,100689.27
2022-08-24T20:09:07.031Z,100693.58
2022-08-24T20:11:36.150Z,100700.86
2022-08-24T20:14:04.176Z,100708.73
2022-08-24T20:16:40.006Z,100711.02
2022-08-24T20:19:10.884Z,100714.48
2022-08-24T20:21:39.029Z,100714.27
2022-08-24T20:24:07.195Z,100707.54
2022-08-24T20:26:41.414Z,100706.30
2022-08-24T20:29:10.829Z,100714.13
2022-08-24T20:31:40.406Z,100714.15
2022-08-24T20:34:08.277Z,100712.58
2022-08-24T20:36:43.965Z,100710.43
2022-08-24T20:39:23.905Z,100708.20
2022-08-24T20:41:53.693Z,100706.63
2022-08-24T20:44:22.570Z,100707.27
2022-08-24T20:46:50.988Z,100710.85
2022-08-24T20:49:24.773Z,100710.70
2022-08-24T20:51:53.355Z,100714.77
2022-08-24T20:54:21.402Z,100715.26
2022-08-24T20:56:49.676Z,100720.38
2022-08-24T20:59:19.017Z,100721.73
2022-08-24T21:01:47.488Z,100720.00
2022-08-24T21:04:15.470Z,100722.23
2022-08-24T21:06:44.866Z,100725.83
2022-08-24T21:09:14.516Z,100727.29
2022-08-24T21:11:43.790Z,100729.68
2022-08-24T21:14:13.194Z,100724.36
2022-08-24T21:16:43.675Z,100723.41
2022-08-24T21:19:18.219Z,100720.77
2022-08-24T21:21:48.357Z,100717.02
2022-08-24T21:24:16.551Z,100716.19
2022-08-24T21:26:44.783Z,100716.79
2022-08-24T21:29:12.651Z,100719.30
2022-08-24T21:31:40.593Z,100714.29
2022-08-24T21:34:27.979Z,100708.73
2022-08-24T21:36:56.652Z,100707.66
2022-08-24T21:39:25.694Z,100707.80
2022-08-24T21:41:53.965Z,100707.98
2022-08-24T21:44:22.217Z,100711.78
2022-08-24T21:46:52.277Z,100712.10
2022-08-24T21:49:21.358Z,100714.66
2022-08-24T21:51:49.458Z,100718.80
2022-08-24T21:54:17.471Z,100717.27
2022-08-24T21:56:45.623Z,100712.73
2022-08-24T21:59:13.563Z,100710.95
2022-08-24T22:01:41.738Z,100713.86
2022-08-24T22:04:11.423Z,100714.95
2022-08-24T22:06:39.816Z,100720.74
2022-08-24T22:09:08.287Z,100715.59
2022-08-24T22:11:36.425Z,100714.32
2022-08-24T22:14:04.965Z,100712.63
2022-08-24T22:16:33.446Z,100710.02
2022-08-24T22:19:05.914Z,100707.86
2022-08-24T22:21:36.351Z,100711.20
2022-08-24T22:24:04.646Z,100712.95
2022-08-24T22:26:32.806Z,100707.77
2022-08-24T22:29:02.050Z,100707.66
2022-08-24T22:31:32.672Z,100710.92
2022-08-24T22:34:03.006Z,100707.94
2022-08-24T22:36:31.340Z,100707.52
2022-08-24T22:38:59.948Z,100708.39
2022-08-24T22:41:29.691Z,100708.45
2022-08-24T22:44:19.316Z,100709.00
2022-08-24T22:46:52.119Z,100708.10
2022-08-24T22:49:22.450Z,100700.81
2022-08-24T22:51:50.850Z,100698.93
2022-08-24T22:54:20.270Z,100696.29
2022-08-24T22:56:52.593Z,100691.77
2022-08-24T22:59:54.276Z,100688.95
2022-08-24T23:02:22.627Z,100685.49
2022-08-24T23:04:53.017Z,100677.15
2022-08-24T23:07:21.621Z,100677.40
2022-08-24T23:09:49.970Z,100675.39
2022-08-24T23:12:22.687Z,100673.54
2022-08-24T23:14:52.322Z,100666.52
2022-08-24T23:17:22.205Z,100662.46
2022-08-24T23:20:06.049Z,100661.11
2022-08-24T23:22:37.835Z,100660.93
2022-08-24T23:25:08.684Z,100659.27
2022-08-24T23:27:38.169Z,100657.74
2022-08-24T23:30:12.781Z,100657.06
2022-08-24T23:32:41.088Z,100654.88
2022-08-24T23:35:09.609Z,100657.80
2022-08-24T23:37:37.531Z,100658.77
2022-08-24T23:40:06.103Z,100664.04
2022-08-24T23:42:34.185Z,100664.54
2022-08-24T23:45:02.560Z,100668.73
2022-08-24T23:47:30.412Z,100670.52
2022-08-24T23:50:06.733Z,100668.45
2022-08-24T23:52:41.318Z,100667.16
2022-08-24T23:55:21.092Z,100668.12
2022-08-24T23:57:53.731Z,100665.84
